Waverly, WV

11:13 AM EST on February 12, 2016 (GMT -0500)
Wood County Wilson | | Change Station
CLOSE
Current Station
Airport
Location: Parkersburg,
Elevation: 860 ft
Nearby Weather Stations

Elev 860 ft 39.35 °N, 81.44 °W | Updated 20 minutes ago

Snow
Snow
18 °F
Feels Like 18 °F
N
0
Wind Variable Wind from North

Today
High -- | Low -- °F
--% Chance of Precip.
Yesterday
High -- | Low -- °F
Precip. -- in
Pressure 30.22 in
Visibility 10.0 miles
Clouds Overcast 4800 ft
Dew Point 12 °F
Humidity 78%
Rainfall 0.00 in
Snow Depth Not available.
7:21 AM 5:58 PM
Waxing Crescent, 21% visible
METAR KPKB 121553Z 00000KT 10SM OVC048 M08/M11 A3017 RMK AO2 SLP231 T10781111
Pressure 30.22 in
Visibility 10.0 miles
Clouds Overcast 4800 ft
Dew Point 12 °F
Humidity 78%
Rainfall 0.00 in
Snow Depth Not available.
7:21 AM 5:58 PM
Waxing Crescent, 21% visible
METAR KPKB 121553Z 00000KT 10SM OVC048 M08/M11 A3017 RMK AO2 SLP231 T10781111

10-Day Weather Forecast

Almanac

Astronomy

Feb. 12, 2016 Rise Set
Actual Time
Civil Twilight
Nautical Twilight
Astronomical Twilight
Moon
Length of Visible Light
Length of Day
Tomorrow will be .
, % of the Moon is Illuminated

Today's Extremes

State Highs State Lows

Community

WunderPhotos

Upload Photos

1,892,345 photos uploaded!

WunderBlog® & News

Nearby

Air Quality

  Air Quality AQ Index Pollutant
Not available.

Snow Depth

Station Depth Elevation

Earthquake Activity

City Distance Mag. Time & Date
Minimum magnitude displayed is 2.5.

Coastal Water Temperatures

Place Temperature

Stations

Nearby Weather Stations

Station Location Temp. Windchill Dew Point Humidity Wind Precip. Elev Updated Type
                   

Watches & Warnings

There are currently no watches in effect.